Time;durP1;ratioP1;P1;durP2;ratioP2;P2;SDS_P1;SDS_P2;PMS_P1;PMS_P2;Temp;Humidity;BMP_temperature;BMP_pressure;BME280_temperature;BME280_humidity;BME280_pressure;Samples;Min_cycle;Max_cycle;Signal;HPM_P1;HPM_P2
2022/12/11 00:00:10;;;;;;;40.70;15.85;;;-0.30;99.90;;;;;;5078217;28;20040;-63
2022/12/11 00:02:37;;;;;;;55.92;22.00;;;-0.30;99.90;;;;;;5066716;28;20451;-62
2022/12/11 00:05:04;;;;;;;55.58;22.35;;;-0.30;99.90;;;;;;5075372;28;20492;-61
2022/12/11 00:07:31;;;;;;;60.00;23.08;;;-0.40;99.90;;;;;;5070637;28;20516;-62
2022/12/11 00:09:58;;;;;;;65.97;23.13;;;-0.40;99.90;;;;;;5073137;28;20467;-62
2022/12/11 00:12:24;;;;;;;61.42;23.40;;;-0.50;99.90;;;;;;5079149;28;20074;-62
2022/12/11 00:14:52;;;;;;;56.75;23.27;;;-0.40;99.90;;;;;;5069990;28;20060;-62
2022/12/11 00:17:19;;;;;;;59.28;17.25;;;-0.40;99.90;;;;;;5071264;28;20396;-62
2022/12/11 00:19:45;;;;;;;59.95;22.67;;;-0.40;99.90;;;;;;5044501;28;20090;-62
2022/12/11 00:22:12;;;;;;;45.50;18.15;;;-0.50;99.90;;;;;;5072919;28;20404;-62
2022/12/11 00:24:39;;;;;;;48.45;17.27;;;-0.50;99.90;;;;;;5075288;28;20059;-62
2022/12/11 00:27:06;;;;;;;55.03;21.70;;;-0.50;99.90;;;;;;5078601;28;20051;-61
2022/12/11 00:29:33;;;;;;;67.18;22.23;;;-0.50;99.90;;;;;;5083181;28;20032;-61
2022/12/11 00:32:00;;;;;;;42.47;17.17;;;-0.50;99.90;;;;;;5071262;28;20049;-62
2022/12/11 00:34:27;;;;;;;63.58;23.67;;;-0.50;99.90;;;;;;5080059;28;20068;-62
2022/12/11 00:36:54;;;;;;;65.95;24.25;;;-0.60;99.90;;;;;;5069628;28;20048;-62
2022/12/11 00:39:20;;;;;;;59.90;21.55;;;-0.60;99.90;;;;;;5077308;28;20674;-62
2022/12/11 00:41:47;;;;;;;51.03;21.63;;;-0.60;99.90;;;;;;5075277;28;20083;-62
2022/12/11 00:44:14;;;;;;;61.05;23.13;;;-0.60;99.90;;;;;;5075527;28;20126;-61
2022/12/11 00:46:41;;;;;;;37.10;14.68;;;-0.60;99.90;;;;;;5082353;28;20447;-62
2022/12/11 00:49:07;;;;;;;43.90;16.15;;;-0.60;99.90;;;;;;5075647;28;20049;-62
2022/12/11 00:51:34;;;;;;;53.80;20.30;;;-0.60;99.90;;;;;;5063794;28;20068;-62
2022/12/11 00:54:01;;;;;;;39.17;16.80;;;-0.60;99.90;;;;;;5054140;28;20401;-63
2022/12/11 00:56:28;;;;;;;55.50;19.52;;;-0.60;99.90;;;;;;5077001;28;20039;-62
2022/12/11 00:58:55;;;;;;;63.70;23.13;;;-0.60;99.90;;;;;;5067629;28;20076;-61
2022/12/11 01:01:24;;;;;;;67.65;24.52;;;-0.60;99.90;;;;;;5081906;28;20055;-62
2022/12/11 01:03:51;;;;;;;61.20;23.73;;;-0.70;99.90;;;;;;5061975;28;20060;-62
2022/12/11 01:06:21;;;;;;;54.53;21.20;;;-0.60;99.90;;;;;;5079311;28;20094;-62
2022/12/11 01:10:22;;;;;;;61.22;22.27;;;-0.60;99.90;;;;;;5075120;28;20037;-62
2022/12/11 01:11:36;;;;;;;62.97;23.10;;;-0.40;99.90;;;;;;5078067;28;20554;-62
2022/12/11 01:14:03;;;;;;;61.58;24.20;;;-0.60;99.90;;;;;;5073032;28;20040;-62
2022/12/11 01:16:29;;;;;;;66.18;23.60;;;-0.60;99.90;;;;;;5075830;28;20074;-62
2022/12/11 01:18:57;;;;;;;62.53;23.67;;;-0.60;99.90;;;;;;5076970;28;20051;-62
2022/12/11 01:21:23;;;;;;;63.28;23.30;;;-0.60;99.90;;;;;;5051365;28;20106;-62
2022/12/11 01:23:51;;;;;;;70.40;25.42;;;-0.50;99.90;;;;;;5065444;28;20044;-62
2022/12/11 01:26:18;;;;;;;56.90;21.92;;;-0.50;99.90;;;;;;5079840;28;20072;-62
2022/12/11 01:28:48;;;;;;;55.85;22.77;;;-0.50;99.90;;;;;;5076217;28;20103;-62
2022/12/11 01:31:16;;;;;;;58.13;22.38;;;-0.50;99.90;;;;;;5078334;28;20133;-62
2022/12/11 01:33:43;;;;;;;61.13;23.15;;;-0.40;99.90;;;;;;5068399;28;20447;-61
2022/12/11 01:36:12;;;;;;;43.15;16.10;;;-0.40;99.90;;;;;;5062820;28;20084;-62
2022/12/11 01:38:40;;;;;;;66.80;23.15;;;-0.40;99.90;;;;;;5065242;28;20060;-62
2022/12/11 01:41:06;;;;;;;;;;;-0.50;99.90;;;;;;5063665;28;20105;-62
2022/12/11 01:43:33;;;;;;;55.75;20.35;;;-0.40;99.90;;;;;;5057122;28;19978;-62
2022/12/11 01:46:00;;;;;;;42.33;16.45;;;-0.50;99.90;;;;;;5053391;28;20049;-62
2022/12/11 01:48:30;;;;;;;65.07;22.55;;;-0.50;99.90;;;;;;5053907;28;20119;-62
2022/12/11 01:51:03;;;;;;;65.80;25.00;;;-0.50;99.90;;;;;;5051859;28;20040;-62
2022/12/11 01:53:34;;;;;;;59.72;23.52;;;-0.50;99.90;;;;;;5053734;28;20051;-62
2022/12/11 01:56:01;;;;;;;57.50;22.83;;;-0.50;99.90;;;;;;5063057;28;20382;-62
2022/12/11 01:58:33;;;;;;;61.30;22.40;;;-0.60;99.90;;;;;;5071789;28;20040;-62
2022/12/11 02:01:01;;;;;;;58.78;20.95;;;-0.50;99.90;;;;;;5069988;28;20032;-62
2022/12/11 02:03:28;;;;;;;57.90;21.33;;;-0.60;99.90;;;;;;5063963;28;20591;-62
2022/12/11 02:05:59;;;;;;;37.70;15.55;;;-0.60;99.90;;;;;;5049518;28;20087;-62
2022/12/11 02:08:26;;;;;;;53.42;20.17;;;-0.60;99.90;;;;;;5051143;28;20057;-61
2022/12/11 02:11:11;;;;;;;50.80;20.15;;;-0.60;99.90;;;;;;5050349;28;20083;-62
2022/12/11 02:13:59;;;;;;;50.95;20.10;;;-0.60;99.90;;;;;;5055246;28;20106;-62
2022/12/11 02:16:35;;;;;;;45.75;18.55;;;-0.70;99.90;;;;;;5050267;28;20521;-62
2022/12/11 02:19:14;;;;;;;53.95;20.00;;;-0.70;99.90;;;;;;5079839;28;20185;-62
2022/12/11 02:21:47;;;;;;;46.85;19.55;;;-0.80;99.90;;;;;;5063215;28;20059;-62
2022/12/11 02:24:38;;;;;;;51.13;19.60;;;-0.80;99.90;;;;;;5050819;28;20551;-62
2022/12/11 02:27:20;;;;;;;49.22;18.02;;;-0.80;99.90;;;;;;5064420;28;20101;-62
2022/12/11 02:29:53;;;;;;;38.92;17.35;;;-0.80;99.90;;;;;;5088086;28;20040;-61
2022/12/11 02:32:26;;;;;;;46.00;17.65;;;-0.80;99.90;;;;;;5050629;28;20110;-62
2022/12/11 02:35:10;;;;;;;39.58;15.95;;;-0.80;99.90;;;;;;5068304;28;20051;-62
2022/12/11 02:37:43;;;;;;;32.83;12.77;;;-0.90;99.90;;;;;;5051122;28;20569;-62
2022/12/11 02:40:14;;;;;;;41.97;16.42;;;-0.80;99.90;;;;;;5049726;28;20493;-63
2022/12/11 02:42:42;;;;;;;35.42;13.07;;;-0.80;99.90;;;;;;5049727;28;20094;-62
2022/12/11 02:45:10;;;;;;;26.08;10.02;;;-0.90;99.90;;;;;;5049643;28;20103;-62
2022/12/11 02:47:38;;;;;;;29.27;12.13;;;-0.90;99.90;;;;;;5050957;28;20095;-62
2022/12/11 02:50:11;;;;;;;25.50;11.27;;;-0.90;99.90;;;;;;5050197;28;20114;-62
2022/12/11 02:52:40;;;;;;;35.47;13.32;;;-0.90;99.90;;;;;;5056620;28;20080;-62
2022/12/11 02:55:09;;;;;;;36.70;14.32;;;-0.90;99.90;;;;;;5049889;28;20098;-62
2022/12/11 02:58:05;;;;;;;31.88;13.25;;;-0.90;99.90;;;;;;5049161;28;20460;-62
2022/12/11 03:00:33;;;;;;;29.80;13.40;;;-0.90;99.90;;;;;;5000534;28;20396;-62
2022/12/11 03:03:01;;;;;;;32.30;13.40;;;-0.90;99.90;;;;;;5063298;28;20436;-63
2022/12/11 03:05:28;;;;;;;38.00;13.82;;;-0.90;99.90;;;;;;5051012;28;20068;-62
2022/12/11 03:07:55;;;;;;;32.17;13.15;;;-0.90;99.90;;;;;;5050751;28;20057;-62
2022/12/11 03:10:22;;;;;;;36.17;14.15;;;-0.90;99.90;;;;;;5054828;28;20045;-62
2022/12/11 03:12:54;;;;;;;34.83;14.40;;;-0.90;99.90;;;;;;5050195;28;20068;-62
2022/12/11 03:15:29;;;;;;;29.45;12.80;;;-0.90;99.90;;;;;;5071471;22;20061;-61
2022/12/11 03:18:12;;;;;;;32.95;13.98;;;-0.90;99.90;;;;;;5089519;28;20157;-61
2022/12/11 03:21:04;;;;;;;34.78;13.93;;;-0.90;99.90;;;;;;5090690;28;20090;-60
2022/12/11 03:23:47;;;;;;;31.10;12.88;;;-0.90;99.90;;;;;;5089387;28;20090;-60
2022/12/11 03:26:16;;;;;;;33.75;14.10;;;-0.90;99.90;;;;;;5106135;28;20052;-61
2022/12/11 03:28:45;;;;;;;36.25;13.05;;;-1.00;99.90;;;;;;5081349;28;20469;-61
2022/12/11 03:31:26;;;;;;;35.53;14.82;;;-0.90;99.90;;;;;;5070651;28;20064;-60
2022/12/11 03:33:57;;;;;;;32.92;13.75;;;-0.90;99.90;;;;;;5069018;28;20094;-61
2022/12/11 03:36:30;;;;;;;32.28;12.13;;;-0.90;99.90;;;;;;5070753;28;20041;-60
2022/12/11 03:39:00;;;;;;;32.42;13.90;;;-0.90;99.90;;;;;;5078329;28;20072;-61
2022/12/11 03:41:29;;;;;;;31.52;12.88;;;-0.90;99.90;;;;;;5070061;28;20048;-61
2022/12/11 03:43:57;;;;;;;35.47;14.05;;;-0.80;99.90;;;;;;5070501;28;20094;-61
2022/12/11 03:46:33;;;;;;;38.08;13.80;;;-0.90;99.90;;;;;;5069939;28;20113;-60
2022/12/11 03:49:04;;;;;;;36.85;14.23;;;-0.80;99.90;;;;;;5070475;28;20049;-60
2022/12/11 03:51:33;;;;;;;29.95;12.80;;;-0.80;99.90;;;;;;5070960;28;20516;-60
2022/12/11 03:54:00;;;;;;;38.38;14.93;;;-0.80;99.90;;;;;;5079122;28;20480;-61
2022/12/11 03:56:29;;;;;;;43.20;16.08;;;-0.80;99.90;;;;;;5069499;28;20086;-61
2022/12/11 03:58:55;;;;;;;38.13;14.52;;;-0.80;99.90;;;;;;5074573;28;20098;-61
2022/12/11 04:01:22;;;;;;;28.67;12.65;;;-0.90;99.90;;;;;;5074502;28;20094;-60
2022/12/11 04:03:49;;;;;;;25.02;11.25;;;-0.90;99.90;;;;;;5076574;28;20082;-60
2022/12/11 04:06:16;;;;;;;28.42;12.80;;;-0.90;99.90;;;;;;5072057;28;20044;-61
2022/12/11 04:08:43;;;;;;;29.10;12.55;;;-1.00;99.90;;;;;;5073632;28;20040;-61
2022/12/11 04:16:40;;;;;;;35.53;14.50;;;-0.90;99.90;;;;;;5072765;28;20485;-61
2022/12/11 04:24:39;;;;;;;39.63;15.68;;;-1.00;99.90;;;;;;5073427;28;20070;-61
2022/12/11 04:27:06;;;;;;;40.38;15.07;;;-1.00;99.90;;;;;;5072749;28;20079;-61
2022/12/11 04:29:33;;;;;;;42.95;15.27;;;-1.00;99.90;;;;;;5073384;28;20068;-61
2022/12/11 04:32:00;;;;;;;22.98;9.80;;;-1.00;99.90;;;;;;5076896;28;20460;-61
2022/12/11 04:34:26;;;;;;;37.30;16.08;;;-1.10;99.90;;;;;;5093087;28;20538;-61
2022/12/11 04:36:53;;;;;;;35.33;12.95;;;-1.10;99.90;;;;;;5092633;28;20071;-61
2022/12/11 04:39:20;;;;;;;28.58;12.00;;;-1.10;99.90;;;;;;5074429;28;20515;-61
2022/12/11 04:41:46;;;;;;;45.78;16.73;;;-1.10;99.90;;;;;;5084796;28;20055;-61
2022/12/11 04:44:13;;;;;;;44.70;18.20;;;-1.10;99.90;;;;;;5086332;28;20082;-61
2022/12/11 04:46:40;;;;;;;32.47;12.57;;;-1.10;99.90;;;;;;5073121;28;20433;-61
2022/12/11 04:49:06;;;;;;;37.92;16.10;;;-1.10;99.90;;;;;;5072153;28;20156;-61
2022/12/11 04:51:33;;;;;;;51.95;18.17;;;-1.10;99.90;;;;;;5072905;28;20048;-61
2022/12/11 04:54:00;;;;;;;30.95;12.20;;;-1.10;99.90;;;;;;5071775;28;20041;-61
2022/12/11 04:56:26;;;;;;;42.72;17.08;;;-1.10;99.90;;;;;;5082348;28;20067;-61
2022/12/11 04:58:53;;;;;;;41.10;15.55;;;-1.10;99.90;;;;;;5079891;28;20056;-61
2022/12/11 05:01:22;;;;;;;39.03;15.70;;;-1.10;99.90;;;;;;5073135;28;20040;-62
2022/12/11 05:03:49;;;;;;;42.47;17.20;;;-1.10;99.90;;;;;;5071375;28;20106;-61
2022/12/11 05:06:16;;;;;;;45.10;16.55;;;-1.20;99.90;;;;;;5073168;28;20053;-61
2022/12/11 05:08:44;;;;;;;42.53;17.20;;;-1.20;99.90;;;;;;5070157;28;20102;-61
2022/12/11 05:11:13;;;;;;;35.67;15.32;;;-1.10;99.90;;;;;;5073048;28;20049;-61
2022/12/11 05:13:40;;;;;;;36.47;14.48;;;-1.20;99.90;;;;;;5071748;28;20044;-61
2022/12/11 05:16:09;;;;;;;37.00;14.85;;;-1.20;99.90;;;;;;5080672;28;20118;-61
2022/12/11 05:18:36;;;;;;;36.22;14.48;;;-1.20;99.90;;;;;;5089344;28;20453;-61
2022/12/11 05:21:09;;;;;;;46.40;16.13;;;-1.20;99.90;;;;;;5082979;28;20036;-61
2022/12/11 05:23:36;;;;;;;46.75;16.80;;;-1.10;99.90;;;;;;5085564;28;20063;-61
2022/12/11 05:26:11;;;;;;;42.38;16.73;;;-1.10;99.90;;;;;;5078349;28;20045;-61
2022/12/11 05:28:38;;;;;;;40.22;14.63;;;-1.20;99.90;;;;;;5070693;28;20036;-61
2022/12/11 05:31:10;;;;;;;37.75;15.00;;;-1.10;99.90;;;;;;5072498;28;20079;-61
2022/12/11 05:33:37;;;;;;;39.58;14.73;;;-1.20;99.90;;;;;;5070561;28;20052;-61
2022/12/11 05:36:06;;;;;;;35.13;14.05;;;-1.30;99.90;;;;;;5072390;28;20064;-61
2022/12/11 05:38:33;;;;;;;37.08;13.93;;;-1.40;99.90;;;;;;5070921;28;20451;-67
2022/12/11 05:41:01;;;;;;;;;;;-1.40;99.90;;;;;;5079332;28;20604;-61
2022/12/11 05:43:32;;;;;;;37.42;14.13;;;-1.40;99.90;;;;;;5052175;28;19928;-61
2022/12/11 05:46:06;;;;;;;39.20;14.73;;;-1.40;99.90;;;;;;5071678;28;20415;-61
2022/12/11 05:48:34;;;;;;;39.35;14.85;;;-1.50;99.90;;;;;;5071870;28;20040;-61
2022/12/11 05:51:02;;;;;;;34.85;13.55;;;-1.50;99.90;;;;;;5080339;28;20045;-61
2022/12/11 05:53:29;;;;;;;40.05;14.93;;;-1.50;99.90;;;;;;5070382;28;20452;-61
2022/12/11 05:56:06;;;;;;;29.35;11.50;;;-1.50;99.90;;;;;;5091978;28;20063;-61
2022/12/11 05:58:33;;;;;;;35.22;13.82;;;-1.50;99.90;;;;;;5090150;28;20036;-61
2022/12/11 06:01:01;;;;;;;32.40;13.38;;;-1.50;99.90;;;;;;5070774;28;20106;-61
2022/12/11 06:03:28;;;;;;;32.65;12.77;;;-1.50;99.90;;;;;;5071751;28;20423;-61
2022/12/11 06:05:54;;;;;;;28.58;12.40;;;-1.50;99.90;;;;;;5069486;28;20091;-61
2022/12/11 06:08:21;;;;;;;25.88;11.15;;;-1.50;99.90;;;;;;5071926;28;20097;-61
2022/12/11 06:10:49;;;;;;;32.95;13.77;;;-1.50;99.90;;;;;;5072090;28;20040;-61
2022/12/11 06:13:17;;;;;;;38.38;14.20;;;-1.60;99.90;;;;;;5071484;28;20044;-61
2022/12/11 06:15:44;;;;;;;34.83;13.10;;;-1.60;99.90;;;;;;5069788;28;20040;-61
2022/12/11 06:18:10;;;;;;;30.35;13.82;;;-1.60;99.90;;;;;;5071729;28;20078;-61
2022/12/11 06:20:38;;;;;;;26.90;9.90;;;-1.60;99.90;;;;;;5071777;28;20037;-61
2022/12/11 06:23:05;;;;;;;33.55;13.07;;;-1.60;99.90;;;;;;5053383;28;20049;-61
2022/12/11 06:25:32;;;;;;;46.42;15.07;;;-1.60;99.90;;;;;;5070460;28;20447;-61
2022/12/11 06:27:59;;;;;;;35.80;13.98;;;-1.60;99.90;;;;;;5073466;28;20032;-61
2022/12/11 06:30:25;;;;;;;33.55;12.90;;;-1.50;99.90;;;;;;5070400;28;20161;-61
2022/12/11 06:33:05;;;;;;;35.92;13.68;;;-1.50;99.90;;;;;;5070454;28;20098;-61
2022/12/11 06:35:32;;;;;;;34.65;14.02;;;-1.50;99.90;;;;;;5070658;28;20043;-61
2022/12/11 06:38:05;;;;;;;36.08;14.25;;;-1.50;99.90;;;;;;5070830;28;20110;-61
2022/12/11 06:40:32;;;;;;;23.00;9.98;;;-1.50;99.90;;;;;;5070312;28;20036;-61
2022/12/11 06:42:59;;;;;;;33.55;13.52;;;-1.50;99.90;;;;;;5059216;28;20651;-61
2022/12/11 06:45:25;;;;;;;27.05;9.65;;;-1.50;99.90;;;;;;5082032;28;20036;-61
2022/12/11 06:47:52;;;;;;;30.05;11.90;;;-1.50;99.90;;;;;;5091593;28;20169;-61
2022/12/11 06:50:19;;;;;;;29.67;11.05;;;-1.50;99.90;;;;;;5088306;28;20101;-61
2022/12/11 06:52:46;;;;;;;35.85;13.65;;;-1.50;99.90;;;;;;5090600;28;20072;-61
2022/12/11 06:55:12;;;;;;;22.73;9.93;;;-1.60;99.90;;;;;;5090406;28;20036;-61
2022/12/11 06:57:39;;;;;;;27.65;10.82;;;-1.60;99.90;;;;;;5088010;28;20037;-61
2022/12/11 07:00:07;;;;;;;25.83;11.30;;;-1.60;99.90;;;;;;5076089;28;20037;-61
2022/12/11 07:02:34;;;;;;;26.20;11.07;;;-1.60;99.90;;;;;;5069776;28;20101;-61
2022/12/11 07:05:01;;;;;;;30.17;10.73;;;-1.60;99.90;;;;;;5052911;28;20378;-61
2022/12/11 07:07:28;;;;;;;31.42;11.25;;;-1.60;99.90;;;;;;5070807;28;20512;-61
2022/12/11 07:09:54;;;;;;;29.85;12.00;;;-1.60;99.90;;;;;;5069338;28;20215;-61
2022/12/11 07:12:21;;;;;;;27.70;11.57;;;-1.50;99.90;;;;;;5070608;28;20048;-61
2022/12/11 07:14:48;;;;;;;26.15;11.60;;;-1.50;99.90;;;;;;5081420;28;20451;-61
2022/12/11 07:17:15;;;;;;;26.10;9.77;;;-1.50;99.90;;;;;;5085562;28;20093;-61
2022/12/11 07:19:41;;;;;;;27.63;10.65;;;-1.50;99.90;;;;;;5090499;28;20036;-61
2022/12/11 07:22:08;;;;;;;22.23;9.18;;;-1.40;99.90;;;;;;5085317;28;20088;-61
2022/12/11 07:24:35;;;;;;;23.38;10.30;;;-1.40;99.90;;;;;;5079918;28;20095;-61
2022/12/11 07:27:03;;;;;;;25.50;9.63;;;-1.40;99.90;;;;;;5087537;28;20070;-61
2022/12/11 07:29:30;;;;;;;26.45;10.65;;;-1.40;99.90;;;;;;5074758;28;20119;-61
2022/12/11 07:31:56;;;;;;;22.15;10.32;;;-1.30;99.90;;;;;;5069942;28;20494;-61
2022/12/11 07:34:23;;;;;;;21.90;10.23;;;-1.40;99.90;;;;;;5073059;28;20412;-61
2022/12/11 07:36:50;;;;;;;21.38;7.22;;;-1.30;99.90;;;;;;5074315;28;20040;-61
2022/12/11 07:39:17;;;;;;;21.83;9.77;;;-1.30;99.90;;;;;;5081180;28;20075;-61
2022/12/11 07:41:44;;;;;;;24.40;9.57;;;-1.30;99.90;;;;;;5093669;28;20060;-61
2022/12/11 07:44:11;;;;;;;20.02;8.77;;;-1.30;99.90;;;;;;5074927;28;20111;-61
2022/12/11 07:46:39;;;;;;;25.33;9.55;;;-1.30;99.90;;;;;;5073478;28;20079;-61
2022/12/11 07:49:06;;;;;;;20.80;9.48;;;-1.30;99.90;;;;;;5073927;28;20093;-61
2022/12/11 07:51:35;;;;;;;19.60;9.15;;;-1.30;99.90;;;;;;5073286;28;20118;-61
2022/12/11 07:54:09;;;;;;;21.75;9.07;;;-1.30;99.90;;;;;;5074746;28;20106;-61
2022/12/11 07:56:36;;;;;;;18.67;9.27;;;-1.20;99.90;;;;;;5059970;28;20106;-61
2022/12/11 07:59:04;;;;;;;23.00;9.38;;;-1.20;99.90;;;;;;5084710;28;20032;-61
2022/12/11 08:01:34;;;;;;;21.70;10.27;;;-1.10;99.90;;;;;;5079788;28;20056;-61
2022/12/11 08:04:03;;;;;;;17.83;8.20;;;-1.10;99.90;;;;;;5081464;28;20048;-61
2022/12/11 08:06:33;;;;;;;25.33;9.07;;;-1.10;99.90;;;;;;5083889;28;20036;-61
2022/12/11 08:09:01;;;;;;;17.58;8.23;;;-1.00;99.90;;;;;;5084711;28;20048;-61
2022/12/11 08:11:28;;;;;;;19.05;8.57;;;-1.00;99.90;;;;;;5080763;28;20068;-61
2022/12/11 08:13:58;;;;;;;18.50;8.38;;;-0.90;99.90;;;;;;5079008;28;20108;-61
2022/12/11 08:16:25;;;;;;;18.27;8.98;;;-0.90;99.90;;;;;;5076160;28;20075;-61
2022/12/11 08:18:52;;;;;;;20.02;9.13;;;-0.90;99.90;;;;;;5073841;28;20111;-61
2022/12/11 08:21:24;;;;;;;18.42;9.43;;;-0.80;99.90;;;;;;5075454;28;20083;-61
2022/12/11 08:23:53;;;;;;;21.98;9.25;;;-0.80;99.90;;;;;;5073577;28;20036;-61
2022/12/11 08:26:25;;;;;;;22.38;8.70;;;-0.70;99.90;;;;;;5072227;28;20052;-61
2022/12/11 08:28:52;;;;;;;21.88;10.23;;;-0.60;99.90;;;;;;5073785;28;20045;-61
2022/12/11 08:31:19;;;;;;;25.25;8.95;;;-0.60;99.90;;;;;;5076007;28;20126;-61
2022/12/11 08:33:47;;;;;;;21.08;8.65;;;-0.50;99.90;;;;;;5072676;28;20044;-61
2022/12/11 08:36:17;;;;;;;17.70;8.52;;;-0.50;99.90;;;;;;5071996;28;20040;-61
2022/12/11 08:38:45;;;;;;;19.27;8.40;;;-0.50;99.90;;;;;;5076856;28;20055;-61
2022/12/11 08:41:18;;;;;;;21.33;8.65;;;-0.50;99.90;;;;;;5072401;28;20086;-61
2022/12/11 08:43:45;;;;;;;21.27;9.20;;;-0.50;99.90;;;;;;5072394;28;20118;-61
2022/12/11 08:46:12;;;;;;;;;;;-0.50;99.90;;;;;;5054772;28;20489;-61
2022/12/11 08:48:41;;;;;;;21.20;9.27;;;-0.60;99.90;;;;;;5083006;28;20451;-61
2022/12/11 08:51:11;;;;;;;18.85;9.00;;;-0.50;99.90;;;;;;5078593;28;20048;-61
2022/12/11 08:53:38;;;;;;;17.75;8.02;;;-0.60;99.90;;;;;;5072438;28;20102;-61
2022/12/11 08:56:06;;;;;;;;;;;-0.50;99.90;;;;;;5072829;28;20475;-61
2022/12/11 08:58:33;;;;;;;17.38;6.72;;;-0.40;99.90;;;;;;5075227;28;20001;-61
2022/12/11 09:01:05;;;;;;;21.88;7.88;;;-0.50;99.90;;;;;;5074930;28;20649;-61
2022/12/11 09:03:32;;;;;;;17.10;7.10;;;-0.50;99.90;;;;;;5071309;28;20507;-60
2022/12/11 09:06:02;;;;;;;17.92;7.32;;;-0.40;99.90;;;;;;5054009;28;20118;-61
2022/12/11 09:08:28;;;;;;;18.38;7.03;;;-0.40;99.90;;;;;;5074244;28;20404;-61
2022/12/11 09:10:55;;;;;;;16.60;6.70;;;-0.30;99.90;;;;;;5071735;28;20071;-61
2022/12/11 09:13:22;;;;;;;16.08;7.07;;;-0.30;99.90;;;;;;5071956;28;20106;-61
2022/12/11 09:16:18;;;;;;;16.02;7.93;;;-0.20;99.90;;;;;;5089447;22;20048;-63
2022/12/11 09:19:18;;;;;;;22.30;7.63;;;-0.20;99.90;;;;;;5082434;28;20044;-63
2022/12/11 09:21:45;;;;;;;20.65;7.68;;;-0.10;99.90;;;;;;5101556;28;20389;-63
2022/12/11 09:24:12;;;;;;;23.25;8.02;;;0.00;99.90;;;;;;5097447;28;20074;-63
2022/12/11 09:26:39;;;;;;;;;;;0.10;99.90;;;;;;5102185;28;20048;-63
2022/12/11 09:29:06;;;;;;;14.77;6.82;;;0.10;99.90;;;;;;5063407;28;19959;-63
2022/12/11 09:31:35;;;;;;;15.80;7.07;;;0.20;99.90;;;;;;5068772;28;20071;-63
2022/12/11 09:34:10;;;;;;;17.30;6.75;;;0.20;99.90;;;;;;5087432;28;20074;-63
2022/12/11 09:36:42;;;;;;;16.27;6.78;;;0.30;99.90;;;;;;5073602;28;20128;-63
2022/12/11 09:39:11;;;;;;;14.32;6.00;;;0.30;99.90;;;;;;5078235;28;20047;-63
2022/12/11 09:42:14;;;;;;;13.15;6.15;;;0.40;99.90;;;;;;5064484;28;20037;-64
2022/12/11 09:44:45;;;;;;;15.68;6.47;;;0.60;99.90;;;;;;5065141;28;20045;-63
2022/12/11 09:47:33;;;;;;;10.68;5.50;;;0.70;99.90;;;;;;5064662;28;20045;-63
2022/12/11 09:50:23;;;;;;;17.60;6.38;;;0.70;99.90;;;;;;5052090;28;20076;-63
2022/12/11 09:53:16;;;;;;;12.43;5.95;;;0.60;99.90;;;;;;5062188;28;20555;-63
2022/12/11 09:55:51;;;;;;;15.77;6.53;;;0.50;99.90;;;;;;5070722;28;20040;-63
2022/12/11 09:58:25;;;;;;;14.75;6.07;;;0.50;99.90;;;;;;5071256;28;20170;-63
2022/12/11 10:01:26;;;;;;;11.35;5.10;;;0.50;99.90;;;;;;5066322;28;20057;-63
2022/12/11 10:04:14;;;;;;;16.65;6.60;;;0.50;99.90;;;;;;5071497;28;20044;-63
2022/12/11 10:06:53;;;;;;;;;;;0.40;99.90;;;;;;5074884;28;20501;-63
2022/12/11 10:09:50;;;;;;;19.25;8.02;;;0.30;99.90;;;;;;5083384;28;19955;-64
2022/12/11 10:12:43;;;;;;;18.75;9.07;;;0.30;99.90;;;;;;5061036;28;20083;-63
2022/12/11 10:15:22;;;;;;;17.23;7.75;;;0.40;99.90;;;;;;5051248;28;20051;-63
2022/12/11 10:17:52;;;;;;;13.55;5.93;;;0.40;99.90;;;;;;5075197;28;20120;-63
2022/12/11 10:20:23;;;;;;;17.38;7.88;;;0.50;99.90;;;;;;5088042;28;20067;-63
2022/12/11 10:22:52;;;;;;;13.82;6.05;;;0.60;99.90;;;;;;5050872;28;20040;-63
2022/12/11 10:25:27;;;;;;;13.38;5.35;;;0.60;99.90;;;;;;5051349;28;20045;-64
2022/12/11 10:27:55;;;;;;;11.68;4.47;;;0.60;99.90;;;;;;5085589;28;20043;-63
2022/12/11 10:30:32;;;;;;;10.73;5.00;;;0.50;99.90;;;;;;5079841;28;20448;-63
2022/12/11 10:33:20;;;;;;;12.43;4.80;;;0.50;99.90;;;;;;5049861;28;20468;-63
2022/12/11 10:35:55;;;;;;;9.98;4.57;;;0.60;99.90;;;;;;5049082;28;20045;-63
2022/12/11 10:38:42;;;;;;;11.75;4.30;;;0.60;99.90;;;;;;5058646;28;20124;-63
2022/12/11 10:41:11;;;;;;;12.02;5.60;;;0.60;99.90;;;;;;5064828;28;20040;-63
2022/12/11 10:43:44;;;;;;;10.55;4.72;;;0.60;99.90;;;;;;5069691;28;20044;-63
2022/12/11 10:46:21;;;;;;;13.75;5.70;;;0.60;99.90;;;;;;5087123;28;20036;-63
2022/12/11 10:48:54;;;;;;;10.50;4.72;;;0.80;99.90;;;;;;5090035;28;20040;-64
2022/12/11 10:51:39;;;;;;;13.57;4.90;;;0.90;99.90;;;;;;5052023;28;20056;-63
2022/12/11 10:54:16;;;;;;;11.85;4.47;;;0.80;99.90;;;;;;5054677;28;20140;-63
2022/12/11 10:56:47;;;;;;;11.43;4.72;;;0.70;99.90;;;;;;5062723;28;20044;-63
2022/12/11 10:59:45;;;;;;;9.13;4.22;;;0.80;99.90;;;;;;5069488;28;20044;-63
2022/12/11 11:02:33;;;;;;;8.93;4.03;;;0.80;99.90;;;;;;5055895;28;20567;-63
2022/12/11 11:05:25;;;;;;;9.45;3.85;;;0.90;99.90;;;;;;5059627;28;20069;-63
2022/12/11 11:08:08;;;;;;;6.00;3.17;;;0.70;99.90;;;;;;5089342;28;20075;-63
2022/12/11 11:10:35;;;;;;;7.53;3.88;;;0.60;99.90;;;;;;5052456;28;20052;-63
2022/12/11 11:13:02;;;;;;;7.72;3.63;;;0.60;99.90;;;;;;5075423;28;20501;-63
2022/12/11 11:15:29;;;;;;;10.90;4.13;;;0.60;99.90;;;;;;5063600;28;20082;-64
2022/12/11 11:18:15;;;;;;;8.38;3.83;;;0.70;99.90;;;;;;5063868;28;20098;-64
2022/12/11 11:20:46;;;;;;;9.43;3.67;;;0.70;99.90;;;;;;5068959;28;20098;-61
2022/12/11 11:23:15;;;;;;;10.75;3.72;;;0.80;99.90;;;;;;5068276;28;20110;-62
2022/12/11 11:25:49;;;;;;;11.48;4.90;;;0.90;99.90;;;;;;5058849;28;20040;-62
2022/12/11 11:28:24;;;;;;;12.35;5.10;;;0.80;99.90;;;;;;5048210;28;20072;-62
2022/12/11 11:31:07;;;;;;;19.08;6.80;;;0.90;99.90;;;;;;5073560;28;20133;-62
2022/12/11 11:33:36;;;;;;;13.63;6.00;;;0.50;99.90;;;;;;5068425;28;20417;-62
2022/12/11 11:36:05;;;;;;;11.20;5.03;;;0.50;99.90;;;;;;5063099;28;20087;-61
2022/12/11 11:38:43;;;;;;;10.43;5.32;;;0.30;99.90;;;;;;5064871;28;20048;-61
2022/12/11 11:41:28;;;;;;;8.38;3.63;;;0.20;99.90;;;;;;5090659;28;20055;-61
2022/12/11 11:44:01;;;;;;;11.82;5.00;;;0.20;99.90;;;;;;5063161;28;20036;-61
2022/12/11 11:46:42;;;;;;;10.40;4.80;;;0.40;99.90;;;;;;5081914;28;20493;-61
2022/12/11 11:49:11;;;;;;;7.57;4.30;;;0.60;99.90;;;;;;5067970;28;20404;-61
2022/12/11 11:51:54;;;;;;;8.65;4.30;;;0.70;99.90;;;;;;5067733;28;20041;-62
2022/12/11 11:54:30;;;;;;;7.85;3.92;;;0.80;99.90;;;;;;5081232;28;20036;-61
2022/12/11 11:57:00;;;;;;;9.38;4.00;;;1.00;99.90;;;;;;5071994;28;20045;-61
2022/12/11 11:59:38;;;;;;;8.02;4.03;;;0.90;99.90;;;;;;5069164;28;20040;-62
2022/12/11 12:02:14;;;;;;;12.93;4.75;;;1.00;99.90;;;;;;5076630;28;20067;-62
2022/12/11 12:04:41;;;;;;;11.18;5.22;;;0.80;99.90;;;;;;5059314;28;20057;-62
2022/12/11 12:07:38;;;;;;;10.45;5.07;;;0.80;99.90;;;;;;5049547;28;20413;-62
2022/12/11 12:10:25;;;;;;;8.52;4.70;;;0.70;99.90;;;;;;5056232;28;20048;-61
2022/12/11 12:12:52;;;;;;;8.10;3.83;;;0.80;99.90;;;;;;5069442;28;20052;-61
2022/12/11 12:15:30;;;;;;;10.07;4.45;;;0.70;99.90;;;;;;5060374;28;20491;-62
2022/12/11 12:18:06;;;;;;;10.52;4.88;;;0.80;99.90;;;;;;5051362;28;20065;-62
2022/12/11 12:20:40;;;;;;;10.10;4.65;;;0.90;99.90;;;;;;5055864;28;20110;-61
2022/12/11 12:23:24;;;;;;;11.30;4.82;;;0.90;99.90;;;;;;5070928;28;20090;-62
2022/12/11 12:26:05;;;;;;;13.05;4.45;;;0.90;99.90;;;;;;5067487;28;20045;-61
2022/12/11 12:28:44;;;;;;;9.13;4.35;;;1.10;99.90;;;;;;5071890;28;20033;-62
2022/12/11 12:31:28;;;;;;;8.25;4.30;;;1.10;99.90;;;;;;5060068;28;20044;-61
2022/12/11 12:34:07;;;;;;;10.35;4.72;;;1.10;99.90;;;;;;5057275;28;20037;-61
2022/12/11 12:36:52;;;;;;;9.23;4.03;;;1.10;99.90;;;;;;5072817;28;20493;-62
2022/12/11 12:40:06;;;;;;;10.35;4.45;;;1.00;99.90;;;;;;5084852;28;20043;-62
2022/12/11 12:42:45;;;;;;;10.77;4.50;;;0.90;99.90;;;;;;5059137;28;20094;-62
2022/12/11 12:45:11;;;;;;;8.60;4.55;;;0.80;99.90;;;;;;5066404;28;20098;-62
2022/12/11 12:47:42;;;;;;;10.65;3.90;;;0.70;99.90;;;;;;5062002;28;20131;-62
2022/12/11 12:50:17;;;;;;;11.77;4.60;;;0.70;99.90;;;;;;5071024;28;20060;-68
2022/12/11 12:52:44;;;;;;;10.75;4.63;;;0.50;99.90;;;;;;5085051;28;20078;-68
2022/12/11 12:55:27;;;;;;;10.27;4.88;;;0.50;99.90;;;;;;5071309;28;20076;-69
2022/12/11 12:57:59;;;;;;;12.40;5.65;;;0.50;99.90;;;;;;5061253;28;20045;-65
2022/12/11 13:00:35;;;;;;;13.32;5.88;;;0.50;99.90;;;;;;5071777;28;20085;-65
2022/12/11 13:03:13;;;;;;;11.23;5.68;;;0.30;99.90;;;;;;5092450;28;20044;-65
2022/12/11 13:05:55;;;;;;;14.07;6.05;;;0.40;99.90;;;;;;5056085;28;20468;-64
2022/12/11 13:08:28;;;;;;;12.13;6.03;;;0.40;99.90;;;;;;5050945;28;20037;-64